createdAt,value
2022-07-28T00:02:02.552Z,12.55
2022-07-28T00:04:32.270Z,12.60
2022-07-28T00:07:03.929Z,12.67
2022-07-28T00:09:33.362Z,12.75
2022-07-28T00:12:02.106Z,12.89
2022-07-28T00:14:30.942Z,13.11
2022-07-28T00:17:01.359Z,13.40
2022-07-28T00:19:31.367Z,13.69
2022-07-28T00:22:00.491Z,13.74
2022-07-28T00:24:29.735Z,13.80
2022-07-28T00:26:58.650Z,13.86
2022-07-28T00:29:49.950Z,13.86
2022-07-28T00:32:18.509Z,13.91
2022-07-28T00:34:47.529Z,13.91
2022-07-28T00:37:16.403Z,13.95
2022-07-28T00:39:45.762Z,14.00
2022-07-28T00:42:14.584Z,14.00
2022-07-28T00:44:44.875Z,14.04
2022-07-28T00:47:13.653Z,14.09
2022-07-28T00:49:46.180Z,14.04
2022-07-28T00:52:18.422Z,14.01
2022-07-28T00:54:49.385Z,14.04
2022-07-28T00:57:18.690Z,14.02
2022-07-28T00:59:48.081Z,14.01
2022-07-28T01:02:17.701Z,13.98
2022-07-28T01:04:49.058Z,13.91
2022-07-28T01:07:32.802Z,13.80
2022-07-28T01:10:14.698Z,13.78
2022-07-28T01:12:57.227Z,13.78
2022-07-28T01:15:33.654Z,13.85
2022-07-28T01:18:08.510Z,13.87
2022-07-28T01:20:45.590Z,13.92
2022-07-28T01:23:55.700Z,13.95
2022-07-28T01:26:53.117Z,13.89
2022-07-28T01:29:51.556Z,13.84
2022-07-28T01:32:27.147Z,13.76
2022-07-28T01:35:04.506Z,13.74
2022-07-28T01:37:42.948Z,13.81
2022-07-28T01:40:18.118Z,13.84
2022-07-28T01:42:52.889Z,13.85
2022-07-28T01:45:25.217Z,13.78
2022-07-28T01:48:00.855Z,13.74
2022-07-28T01:50:32.963Z,13.76
2022-07-28T01:53:03.205Z,13.72
2022-07-28T01:55:35.273Z,13.67
2022-07-28T01:58:06.466Z,13.65
2022-07-28T02:00:37.082Z,13.65
2022-07-28T02:03:12.122Z,13.74
2022-07-28T02:05:45.211Z,13.85
2022-07-28T02:08:17.718Z,13.84
2022-07-28T02:11:09.760Z,13.81
2022-07-28T02:13:41.242Z,13.78
2022-07-28T02:16:13.686Z,13.68
2022-07-28T02:18:48.334Z,13.61
2022-07-28T02:21:19.740Z,13.53
2022-07-28T02:23:51.989Z,13.50
2022-07-28T02:26:29.214Z,13.48
2022-07-28T02:29:02.924Z,13.52
2022-07-28T02:31:41.088Z,13.52
2022-07-28T02:34:17.475Z,13.55
2022-07-28T02:36:56.263Z,13.50
2022-07-28T02:39:55.269Z,13.44
2022-07-28T02:42:33.760Z,13.41
2022-07-28T02:45:08.517Z,13.43
2022-07-28T02:47:46.994Z,13.44
2022-07-28T02:50:23.524Z,13.50
2022-07-28T02:52:58.746Z,13.53
2022-07-28T02:55:29.079Z,13.51
2022-07-28T02:58:00.519Z,13.52
2022-07-28T03:00:35.042Z,13.58
2022-07-28T03:03:06.466Z,13.67
2022-07-28T03:05:39.260Z,13.72
2022-07-28T03:08:11.157Z,13.67
2022-07-28T03:10:42.047Z,13.65
2022-07-28T03:13:11.281Z,13.65
2022-07-28T03:15:41.682Z,13.69
2022-07-28T03:18:10.490Z,13.69
2022-07-28T03:20:40.875Z,13.67
2022-07-28T03:23:11.102Z,13.70
2022-07-28T03:25:48.282Z,13.69
2022-07-28T03:28:23.079Z,13.67
2022-07-28T03:31:00.553Z,13.67
2022-07-28T03:33:30.458Z,13.67
2022-07-28T03:36:10.710Z,13.64
2022-07-28T03:38:48.521Z,13.60
2022-07-28T03:41:21.250Z,13.56
2022-07-28T03:43:52.358Z,13.55
2022-07-28T03:46:22.249Z,13.54
2022-07-28T03:48:51.079Z,13.56
2022-07-28T03:51:22.961Z,13.63
2022-07-28T03:53:52.073Z,13.66
2022-07-28T03:56:21.160Z,13.71
2022-07-28T03:58:50.454Z,13.72
2022-07-28T04:01:19.679Z,13.77
2022-07-28T04:03:48.917Z,13.82
2022-07-28T04:06:18.570Z,13.85
2022-07-28T04:08:48.677Z,13.88
2022-07-28T04:11:18.337Z,13.92
2022-07-28T04:13:47.510Z,14.00
2022-07-28T04:16:16.685Z,14.04
2022-07-28T04:18:46.286Z,14.04
2022-07-28T04:21:15.393Z,14.10
2022-07-28T04:23:44.969Z,14.13
2022-07-28T04:26:15.381Z,14.15
2022-07-28T04:28:44.564Z,14.20
2022-07-28T04:31:13.768Z,14.25
2022-07-28T04:33:43.416Z,14.29
2022-07-28T04:36:12.490Z,14.33
2022-07-28T04:38:42.656Z,14.34
2022-07-28T04:41:11.550Z,14.39
2022-07-28T04:43:42.367Z,14.41
2022-07-28T04:46:14.989Z,14.40
2022-07-28T04:48:49.320Z,14.42
2022-07-28T04:51:18.515Z,14.47
2022-07-28T04:53:47.738Z,14.47
2022-07-28T04:56:16.673Z,14.43
2022-07-28T04:58:46.920Z,14.41
2022-07-28T05:01:18.222Z,14.40
2022-07-28T05:03:47.406Z,14.39
2022-07-28T05:06:21.241Z,14.41
2022-07-28T05:08:50.941Z,14.37
2022-07-28T05:11:20.767Z,14.35
2022-07-28T05:13:51.336Z,14.38
2022-07-28T05:16:21.067Z,14.42
2022-07-28T05:18:49.881Z,14.48
2022-07-28T05:21:22.255Z,14.53
2022-07-28T05:23:51.787Z,14.57
2022-07-28T05:26:24.041Z,14.55
2022-07-28T05:28:54.978Z,14.62
2022-07-28T05:31:24.433Z,14.57
2022-07-28T05:33:53.890Z,14.57
2022-07-28T05:36:23.066Z,14.68
2022-07-28T05:38:58.676Z,14.74
2022-07-28T05:41:40.263Z,14.85
2022-07-28T05:44:14.136Z,14.88
2022-07-28T05:46:45.725Z,14.87
2022-07-28T05:49:15.434Z,14.88
2022-07-28T05:51:44.371Z,14.88
2022-07-28T05:54:14.921Z,14.91
2022-07-28T05:56:49.844Z,14.96
2022-07-28T05:59:20.376Z,14.95
2022-07-28T06:01:49.542Z,14.94
2022-07-28T06:04:28.561Z,14.94
2022-07-28T06:06:58.635Z,14.92
2022-07-28T06:09:27.893Z,14.95
2022-07-28T06:11:56.698Z,14.97
2022-07-28T06:14:26.934Z,15.02
2022-07-28T06:16:55.904Z,15.10
2022-07-28T06:19:25.139Z,15.17
2022-07-28T06:21:55.417Z,15.25
2022-07-28T06:24:24.686Z,15.30
2022-07-28T06:26:54.409Z,15.38
2022-07-28T06:29:25.562Z,15.51
2022-07-28T06:31:54.590Z,15.69
2022-07-28T06:34:27.321Z,15.77
2022-07-28T06:36:56.110Z,15.95
2022-07-28T06:39:25.207Z,16.16
2022-07-28T06:41:54.349Z,16.33
2022-07-28T06:44:42.612Z,16.43
2022-07-28T06:47:21.524Z,16.42
2022-07-28T06:49:50.726Z,16.59
2022-07-28T06:52:21.174Z,16.71
2022-07-28T06:54:53.154Z,16.88
2022-07-28T06:57:33.196Z,16.89
2022-07-28T07:00:08.420Z,17.15
2022-07-28T07:02:42.682Z,17.38
2022-07-28T07:05:14.304Z,17.38
2022-07-28T07:07:46.539Z,17.21
2022-07-28T07:10:15.667Z,17.19
2022-07-28T07:12:45.200Z,17.14
2022-07-28T07:15:17.085Z,17.20
2022-07-28T07:17:47.490Z,17.18
2022-07-28T07:20:17.385Z,17.22
2022-07-28T07:22:49.899Z,17.48
2022-07-28T07:25:21.988Z,17.84
2022-07-28T07:27:51.080Z,18.10
2022-07-28T07:30:20.127Z,18.35
2022-07-28T07:32:53.651Z,18.43
2022-07-28T07:35:22.412Z,18.36
2022-07-28T07:37:52.368Z,18.35
2022-07-28T07:40:21.797Z,18.30
2022-07-28T07:42:50.736Z,18.24
2022-07-28T07:45:21.670Z,18.30
2022-07-28T07:47:53.851Z,18.23
2022-07-28T07:50:23.103Z,18.16
2022-07-28T07:52:51.912Z,17.99
2022-07-28T07:55:20.880Z,17.75
2022-07-28T07:57:50.181Z,17.43
2022-07-28T08:00:29.018Z,17.36
2022-07-28T08:03:01.283Z,17.27
2022-07-28T08:05:35.394Z,17.40
2022-07-28T08:08:06.818Z,17.32
2022-07-28T08:10:38.127Z,17.29
2022-07-28T08:13:08.496Z,17.22
2022-07-28T08:15:40.740Z,17.31
2022-07-28T08:18:11.004Z,17.54
2022-07-28T08:20:41.618Z,17.83
2022-07-28T08:23:12.384Z,18.06
2022-07-28T08:25:41.828Z,18.06
2022-07-28T08:28:11.060Z,17.85
2022-07-28T08:30:41.104Z,18.16
2022-07-28T08:33:11.538Z,18.36
2022-07-28T08:35:41.801Z,18.89
2022-07-28T08:38:12.953Z,19.30
2022-07-28T08:40:50.336Z,19.49
2022-07-28T08:43:35.073Z,18.94
2022-07-28T08:46:07.041Z,18.60
2022-07-28T08:48:39.619Z,18.38
2022-07-28T08:51:11.323Z,18.28
2022-07-28T08:53:42.876Z,18.12
2022-07-28T08:56:15.736Z,18.09
2022-07-28T08:58:45.871Z,17.94
2022-07-28T09:01:14.834Z,18.15
2022-07-28T09:03:46.779Z,18.18
2022-07-28T09:06:19.360Z,18.16
2022-07-28T09:08:50.088Z,18.23
2022-07-28T09:11:21.205Z,18.44
2022-07-28T09:13:53.904Z,18.53
2022-07-28T09:16:23.091Z,18.69
2022-07-28T09:18:54.106Z,18.90
2022-07-28T09:21:23.401Z,18.94
2022-07-28T09:23:53.518Z,18.93
2022-07-28T09:26:22.969Z,18.78
2022-07-28T09:28:55.245Z,18.66
2022-07-28T09:31:26.994Z,18.40
2022-07-28T09:34:03.545Z,18.28
2022-07-28T09:36:42.722Z,18.15
2022-07-28T09:39:11.952Z,17.94
2022-07-28T09:41:51.863Z,18.11
2022-07-28T09:44:26.553Z,18.10
2022-07-28T09:46:57.277Z,18.28
2022-07-28T09:49:44.487Z,18.40
2022-07-28T09:52:14.055Z,18.73
2022-07-28T09:55:02.206Z,18.86
2022-07-28T09:57:32.453Z,19.08
2022-07-28T10:00:09.513Z,19.27
2022-07-28T10:02:41.557Z,19.29
2022-07-28T10:05:18.089Z,19.24
2022-07-28T10:07:51.950Z,19.53
2022-07-28T10:10:23.124Z,19.56
2022-07-28T10:12:52.298Z,19.67
2022-07-28T10:15:45.478Z,19.76
2022-07-28T10:18:22.441Z,19.94
2022-07-28T10:20:53.042Z,19.78
2022-07-28T10:23:23.521Z,19.45
2022-07-28T10:25:56.720Z,19.34
2022-07-28T10:28:26.657Z,19.13
2022-07-28T10:31:03.233Z,19.19
2022-07-28T10:33:34.062Z,19.19
2022-07-28T10:36:07.598Z,18.99
2022-07-28T10:38:38.546Z,19.12
2022-07-28T10:41:11.990Z,19.20
2022-07-28T10:43:45.468Z,19.41
2022-07-28T10:46:17.229Z,19.48
2022-07-28T10:48:46.981Z,19.47
2022-07-28T10:51:18.477Z,19.51
2022-07-28T10:53:55.127Z,19.78
2022-07-28T10:56:39.963Z,19.85
2022-07-28T10:59:30.642Z,19.77
2022-07-28T11:01:59.914Z,19.44
2022-07-28T11:04:55.620Z,19.40
2022-07-28T11:07:40.858Z,19.30
2022-07-28T11:10:20.020Z,19.17
2022-07-28T11:12:50.801Z,19.01
2022-07-28T11:15:35.711Z,19.06
2022-07-28T11:18:08.675Z,19.35
2022-07-28T11:21:16.369Z,19.49
2022-07-28T11:23:56.629Z,19.91
2022-07-28T11:26:41.999Z,20.05
2022-07-28T11:29:21.956Z,20.26
2022-07-28T11:32:07.617Z,18.98
2022-07-28T11:35:11.606Z,19.79
2022-07-28T11:38:13.254Z,20.35
2022-07-28T11:40:46.008Z,20.38
2022-07-28T11:43:40.182Z,20.35
2022-07-28T11:46:35.361Z,20.48
2022-07-28T11:49:25.239Z,20.88
2022-07-28T11:52:24.477Z,21.07
2022-07-28T11:54:57.650Z,20.58
2022-07-28T11:57:31.207Z,21.54
2022-07-28T12:00:03.343Z,21.54
2022-07-28T12:02:34.736Z,21.81
2022-07-28T12:05:12.016Z,22.17
2022-07-28T12:07:48.848Z,22.13
2022-07-28T12:13:30.492Z,22.51
2022-07-28T12:15:59.673Z,22.90
2022-07-28T12:18:31.917Z,23.64
2022-07-28T12:21:05.205Z,23.29
2022-07-28T12:23:45.620Z,22.38
2022-07-28T12:26:34.473Z,23.98
2022-07-28T12:29:14.598Z,22.97
2022-07-28T12:31:55.977Z,22.12
2022-07-28T12:34:28.780Z,21.40
2022-07-28T12:37:02.378Z,20.68
2022-07-28T12:39:34.379Z,20.83
2022-07-28T12:42:05.467Z,20.76
2022-07-28T12:44:41.642Z,21.82
2022-07-28T12:47:13.405Z,23.00
2022-07-28T12:49:44.873Z,23.80
2022-07-28T12:52:22.311Z,23.77
2022-07-28T12:54:56.180Z,23.03
2022-07-28T12:57:48.305Z,23.85
2022-07-28T13:00:24.434Z,24.73
2022-07-28T13:02:57.411Z,24.91
2022-07-28T13:05:53.536Z,24.56
2022-07-28T13:08:24.114Z,24.54
2022-07-28T13:10:57.556Z,25.02
2022-07-28T13:13:28.909Z,25.41
2022-07-28T13:16:17.647Z,25.87
2022-07-28T13:18:51.239Z,26.43
2022-07-28T13:21:38.197Z,26.52
2022-07-28T13:24:08.313Z,25.27
2022-07-28T13:26:38.144Z,25.31
2022-07-28T13:29:14.955Z,25.38
2022-07-28T13:31:45.794Z,25.71
2022-07-28T13:34:14.916Z,26.38
2022-07-28T13:36:47.398Z,26.83
2022-07-28T13:39:16.373Z,24.77
2022-07-28T13:41:57.357Z,23.70
2022-07-28T13:44:28.838Z,25.53
2022-07-28T13:47:03.255Z,26.36
2022-07-28T13:49:37.743Z,26.78
2022-07-28T13:52:12.870Z,27.48
2022-07-28T13:54:45.467Z,27.98
2022-07-28T13:57:14.953Z,27.29
2022-07-28T13:59:45.300Z,27.49
2022-07-28T14:02:16.404Z,27.18
2022-07-28T14:04:50.393Z,26.12
2022-07-28T14:07:20.682Z,26.06
2022-07-28T14:09:56.568Z,26.53
2022-07-28T14:12:25.486Z,26.63
2022-07-28T14:14:54.780Z,26.91
2022-07-28T14:17:44.397Z,26.69
2022-07-28T14:20:16.284Z,25.58
2022-07-28T14:22:47.326Z,25.64
2022-07-28T14:25:19.720Z,25.69
2022-07-28T14:27:51.586Z,26.08
2022-07-28T14:30:22.181Z,25.68
2022-07-28T14:32:53.046Z,26.31
2022-07-28T14:35:23.034Z,26.41
2022-07-28T14:38:35.571Z,26.52
2022-07-28T14:40:43.059Z,26.16
2022-07-28T14:43:12.544Z,26.45
2022-07-28T14:45:51.261Z,26.65
2022-07-28T14:48:33.723Z,26.24
2022-07-28T14:51:02.630Z,25.34
2022-07-28T14:53:31.566Z,24.76
2022-07-28T14:56:04.216Z,25.69
2022-07-28T14:58:37.746Z,26.41
2022-07-28T15:01:06.618Z,26.53
2022-07-28T15:03:41.611Z,26.90
2022-07-28T15:06:12.713Z,26.64
2022-07-28T15:08:44.972Z,26.62
2022-07-28T15:11:14.013Z,26.43
2022-07-28T15:13:43.011Z,26.30
2022-07-28T15:16:11.914Z,26.81
2022-07-28T15:18:42.061Z,27.61
2022-07-28T15:21:12.847Z,28.10
2022-07-28T15:23:42.547Z,26.96
2022-07-28T15:26:12.390Z,27.22
2022-07-28T15:28:41.286Z,27.92
2022-07-28T15:31:11.425Z,27.47
2022-07-28T15:33:48.237Z,27.48
2022-07-28T15:36:19.854Z,27.20
2022-07-28T15:38:50.858Z,27.22
2022-07-28T15:41:20.542Z,26.74
2022-07-28T15:43:49.355Z,26.83
2022-07-28T15:46:18.204Z,27.52
2022-07-28T15:48:48.685Z,27.54
2022-07-28T15:51:22.663Z,26.82
2022-07-28T15:54:04.459Z,27.08
2022-07-28T15:56:38.822Z,27.67
2022-07-28T15:59:09.497Z,27.78
2022-07-28T16:01:45.143Z,27.35
2022-07-28T16:04:18.267Z,26.41
2022-07-28T16:07:04.996Z,25.90
2022-07-28T16:09:45.819Z,25.99
2022-07-28T16:12:16.153Z,26.91
2022-07-28T16:14:45.647Z,27.17
2022-07-28T16:17:15.410Z,26.85
2022-07-28T16:19:49.575Z,25.90
2022-07-28T16:22:22.423Z,25.53
2022-07-28T16:24:55.936Z,25.67
2022-07-28T16:27:25.347Z,25.11
2022-07-28T16:29:54.605Z,25.87
2022-07-28T16:32:24.768Z,26.48
2022-07-28T16:34:55.983Z,26.52
2022-07-28T16:37:25.754Z,26.78
2022-07-28T16:39:59.940Z,27.29
2022-07-28T16:42:29.439Z,27.76
2022-07-28T16:45:00.082Z,24.64
2022-07-28T16:47:28.965Z,25.59
2022-07-28T16:50:00.159Z,26.23
2022-07-28T16:52:29.496Z,26.83
2022-07-28T16:54:58.796Z,27.14
2022-07-28T16:57:30.990Z,26.52
2022-07-28T17:00:02.182Z,24.85
2022-07-28T17:02:34.072Z,24.85
2022-07-28T17:05:05.145Z,24.76
2022-07-28T17:07:34.327Z,24.68
2022-07-28T17:10:03.662Z,24.56
2022-07-28T17:12:38.409Z,25.27
2022-07-28T17:15:22.435Z,25.95
2022-07-28T17:17:52.775Z,25.53
2022-07-28T17:20:25.188Z,25.79
2022-07-28T17:22:54.627Z,25.13
2022-07-28T17:28:12.626Z,25.02
2022-07-28T17:30:41.850Z,25.67
2022-07-28T17:33:10.973Z,25.60
2022-07-28T17:35:42.501Z,25.91
2022-07-28T17:38:13.234Z,25.69
2022-07-28T17:40:43.225Z,25.52
2022-07-28T17:43:15.191Z,24.97
2022-07-28T17:45:47.436Z,24.54
2022-07-28T17:48:16.837Z,24.30
2022-07-28T17:50:49.310Z,24.08
2022-07-28T17:53:23.113Z,23.96
2022-07-28T17:55:57.520Z,23.63
2022-07-28T17:58:35.142Z,23.18
2022-07-28T18:01:10.923Z,22.67
2022-07-28T18:03:56.569Z,21.68
2022-07-28T18:06:30.941Z,20.98
2022-07-28T18:09:05.982Z,20.52
2022-07-28T18:11:56.546Z,20.32
2022-07-28T18:14:30.069Z,20.42
2022-07-28T18:17:00.522Z,20.11
2022-07-28T18:19:30.943Z,19.60
2022-07-28T18:22:06.075Z,19.02
2022-07-28T18:24:35.308Z,18.47
2022-07-28T18:27:05.084Z,17.86
2022-07-28T18:29:38.529Z,17.35
2022-07-28T18:32:10.098Z,16.87
2022-07-28T18:34:40.629Z,16.60
2022-07-28T18:37:11.153Z,16.40
2022-07-28T18:39:41.558Z,16.22
2022-07-28T18:42:10.966Z,15.95
2022-07-28T18:44:41.625Z,15.72
2022-07-28T18:47:10.646Z,15.54
2022-07-28T18:49:39.648Z,15.35
2022-07-28T18:52:10.217Z,15.17
2022-07-28T18:54:39.718Z,15.05
2022-07-28T18:57:08.879Z,14.93
2022-07-28T18:59:43.339Z,14.83
2022-07-28T19:02:14.684Z,14.66
2022-07-28T19:04:44.077Z,14.41
2022-07-28T19:07:16.284Z,14.17
2022-07-28T19:09:45.673Z,13.93
2022-07-28T19:12:15.282Z,13.71
2022-07-28T19:14:44.273Z,13.49
2022-07-28T19:17:13.408Z,13.30
2022-07-28T19:19:42.240Z,13.09
2022-07-28T19:22:11.154Z,12.91
2022-07-28T19:24:41.910Z,12.75
2022-07-28T19:27:11.975Z,12.59
2022-07-28T19:29:40.901Z,12.43
2022-07-28T19:32:10.681Z,12.26
2022-07-28T19:34:39.735Z,12.12
2022-07-28T19:37:08.631Z,12.02
2022-07-28T19:39:48.323Z,11.95
2022-07-28T19:42:17.444Z,11.89
2022-07-28T19:44:46.936Z,11.80
2022-07-28T19:47:15.959Z,11.67
2022-07-28T19:49:45.100Z,11.61
2022-07-28T19:52:14.171Z,11.50
2022-07-28T19:54:43.300Z,11.38
2022-07-28T19:57:21.644Z,11.27
2022-07-28T19:59:50.466Z,11.17
2022-07-28T20:02:19.646Z,11.09
2022-07-28T20:04:48.853Z,11.01
2022-07-28T20:07:19.823Z,11.04
2022-07-28T20:09:51.378Z,10.99
2022-07-28T20:12:22.596Z,10.91
2022-07-28T20:14:55.894Z,10.87
2022-07-28T20:17:38.050Z,10.82
2022-07-28T20:20:16.213Z,10.82
2022-07-28T20:22:45.809Z,10.74
2022-07-28T20:25:16.176Z,10.63
2022-07-28T20:27:50.445Z,10.54
2022-07-28T20:30:19.846Z,10.58
2022-07-28T20:32:48.718Z,10.74
2022-07-28T20:35:19.025Z,10.69
2022-07-28T20:37:47.831Z,10.58
2022-07-28T20:40:18.330Z,10.49
2022-07-28T20:42:52.933Z,10.36
2022-07-28T20:45:23.261Z,10.25
2022-07-28T20:47:52.480Z,10.23
2022-07-28T20:50:22.200Z,10.36
2022-07-28T20:52:50.865Z,10.34
2022-07-28T20:55:26.574Z,10.23
2022-07-28T20:57:57.772Z,10.11
2022-07-28T21:00:27.297Z,10.04
2022-07-28T21:02:58.425Z,9.97
2022-07-28T21:05:35.967Z,9.91
2022-07-28T21:08:09.293Z,9.88
2022-07-28T21:10:39.653Z,9.83
2022-07-28T21:13:10.381Z,9.80
2022-07-28T21:15:39.825Z,9.87
2022-07-28T21:18:09.838Z,10.02
2022-07-28T21:20:39.102Z,9.97
2022-07-28T21:23:08.106Z,9.88
2022-07-28T21:25:37.196Z,9.95
2022-07-28T21:28:29.785Z,10.17
2022-07-28T21:31:03.004Z,10.08
2022-07-28T21:33:32.189Z,10.08
2022-07-28T21:36:01.162Z,10.07
2022-07-28T21:38:29.930Z,9.95
2022-07-28T21:40:59.109Z,9.83
2022-07-28T21:43:30.272Z,9.83
2022-07-28T21:46:00.265Z,9.78
2022-07-28T21:48:29.408Z,9.77
2022-07-28T21:50:59.896Z,9.68
2022-07-28T21:53:28.917Z,9.63
2022-07-28T21:55:58.531Z,9.54
2022-07-28T21:58:29.313Z,9.81
2022-07-28T22:01:02.923Z,9.95
2022-07-28T22:03:36.741Z,9.86
2022-07-28T22:06:06.591Z,9.85
2022-07-28T22:08:36.252Z,9.74
2022-07-28T22:11:05.578Z,9.60
2022-07-28T22:13:36.105Z,9.49
2022-07-28T22:16:06.767Z,9.36
2022-07-28T22:18:35.901Z,9.22
2022-07-28T22:21:05.053Z,9.17
2022-07-28T22:23:34.940Z,9.20
2022-07-28T22:26:06.279Z,9.11
2022-07-28T22:28:37.089Z,9.03
2022-07-28T22:31:09.500Z,8.93
2022-07-28T22:33:39.502Z,8.89
2022-07-28T22:36:09.628Z,8.84
2022-07-28T22:38:39.283Z,8.75
2022-07-28T22:41:11.034Z,8.71
2022-07-28T22:43:41.539Z,8.65
2022-07-28T22:46:12.001Z,8.56
2022-07-28T22:48:41.437Z,8.55
2022-07-28T22:51:12.388Z,8.56
2022-07-28T22:53:42.307Z,8.61
2022-07-28T22:56:12.450Z,8.79
2022-07-28T22:58:42.957Z,8.88
2022-07-28T23:01:15.798Z,8.81
2022-07-28T23:03:46.308Z,8.74
2022-07-28T23:06:16.453Z,8.64
2022-07-28T23:08:45.872Z,8.55
2022-07-28T23:11:15.112Z,8.42
2022-07-28T23:13:48.272Z,8.37
2022-07-28T23:16:17.545Z,8.35
2022-07-28T23:18:49.912Z,8.32
2022-07-28T23:21:19.308Z,8.28
2022-07-28T23:23:48.488Z,8.25
2022-07-28T23:26:18.233Z,8.20
2022-07-28T23:28:48.845Z,8.16
2022-07-28T23:31:18.111Z,8.24
2022-07-28T23:33:56.275Z,8.32
2022-07-28T23:36:29.131Z,8.25
2022-07-28T23:39:00.715Z,8.18
2022-07-28T23:41:31.225Z,8.13
2022-07-28T23:44:02.335Z,8.20
2022-07-28T23:46:31.566Z,8.52
2022-07-28T23:49:03.623Z,8.44
2022-07-28T23:51:47.614Z,8.58
2022-07-28T23:54:19.579Z,8.60
2022-07-28T23:56:52.504Z,8.61
2022-07-28T23:59:22.990Z,8.68
